Aérodrome :
LOGIN :

S'inscrire | Disclaimer

   EN    FR    IT 

 










Légende :    VFR   VFR Marginal   IFR   IFR Intensif   IFR Très Intensif
Visi : 
Plafond : 
>= 8 km
>= 3000ft
5 à 8 km
1000 à 3000 ft
1500m à 5 km
500 à 1000 ft
800 à 1500m
200 à 500 ft
< 800m
< 200 ft
Symboles :   Orages  Brouillard  Fortes neiges  Fortes précipitations  Vent > 20 kt
SIGMETs :   Divers  Orages  Givrage  Turbulence  Onde Orograph.  Cendres Volcan.






- Altitude de l'aérodrome : 776 ft
- Code IATA : RMS


ETAR - Ramstein Air Base

DERNIER METAR :
  • 150759Z 25016G27KT 8000 -RA BR FEW013 FEW019 BKN039 10/10 A2955 RMK AO2A SLP013 $

METARs EXPIRÉS :
  • 150756Z 26020G27KT 5000 -RA BR FEW025 BKN039 10/10 A2955 RMK AO2A RAB44 SLP013 P0001 T01010101 $
  • 150744Z 26018G24KT 8000 -RA BR SCT026 SCT033 BKN044 11/10 A2955 RMK AO2A RAB44 SLP013 $
  • 150711Z 27012G19KT 9999 BKN028 BKN055 10/10 A2954 RMK AO2A BKN028 V SCT SLP009 $
  • 150656Z 27013G24KT 9999 BKN055 10/10 A2954 RMK AO2A PK WND 26027/0556 RAE10RAB44E54 SLP009 P0000 T00990099 $
  • 150644Z 24013G22KT 9999 -RA FEW042 BKN050 10/10 A2953 RMK AO2A RAE10RAB44 SLP006 $
  • 150610Z 25016G25KT 9999 FEW014 SCT029 BKN049 BKN060 10/10 A2953 RMK AO2A RAE10 SLP006 $
  • 150556Z 24015G23KT 9999 -RA SCT015 BKN021 OVC028 10/10 A2952 RMK AO2A PK WND 26027/27 CIG 015V024 CIG 018 RWY08 SLP002 P0007 60039 T00960096 10097 20077 53002 $
  • 150537Z AUTO 25019G24KT 9999 -RA BKN015 BKN022 OVC031 10/10 A2952 RMK AO2 SLP002 $
  • 150526Z 24018G23KT 9999 -RA BKN018 BKN023 OVC035 10/10 A2951 RMK AO2A CIG 016V023 SLP999 $

TAF AMD TAF ETAR
Valide du 15 à 05h jusqu'au 16 à 08h UTC


150511Z 1505/1608 23015G30KT 9000 -SHRA SCT015 BKN025 610702 520003 QNH2948INS
TEMPO 1506/1508 23020G35KT
BECMG 1512/1513 24012KT 9999 NSW BKN020 OVC070 QNH2966INS
BECMG 1520/1521 21009KT 9000 -SHRA BKN015 OVC020 QNH2980INS
BECMG 1603/1604 16006KT 8000 -SHRA BKN008 OVC015 610602 QNH2979INS TX10/1505Z TN07/1602Z



MET'MAP, la Météo Aéronautique d'un coup d'oeil ! - Copyright ORBIFLY Décembre 2007 - Disclaimer

ORBIFLY MET'MAP TEAM :

Programmation & Développement : Alexandra Zaïnal
Sur une idée originale de : Baudouin d'Aumeries
Assistance à la programmation : Marc-Olivier Méhu
Soutien technique & logistique : Manuel Goepfert

Contact : metmap@orbifly.com




SOURCES & CREDITS :

   NOAA